Time;durP1;ratioP1;P1;durP2;ratioP2;P2;SDS_P1;SDS_P2;PMS_P1;PMS_P2;Temp;Humidity;BMP_temperature;BMP_pressure;BME280_temperature;BME280_humidity;BME280_pressure;Samples;Min_cycle;Max_cycle;Signal;HPM_P1;HPM_P2
2022/11/08 00:02:00;;;;;;;1.05;0.30;;;20.50;59.10;;;;;;5028541;28;20053;-47
2022/11/08 00:04:29;;;;;;;2.65;0.63;;;20.50;59.00;;;;;;5011485;28;20053;-47
2022/11/08 00:15:10;;;;;;;3.33;0.50;;;20.40;58.90;;;;;;5048361;28;20040;-48
2022/11/08 00:17:37;;;;;;;3.22;0.43;;;20.40;58.90;;;;;;5048305;28;20053;-48
2022/11/08 00:20:07;;;;;;;1.95;0.35;;;20.40;58.80;;;;;;5042319;28;20454;-52
2022/11/08 00:22:35;;;;;;;2.10;0.22;;;20.40;58.80;;;;;;5028575;28;20141;-49
2022/11/08 00:25:02;;;;;;;1.63;0.32;;;20.40;58.70;;;;;;5070097;28;20052;-49
2022/11/08 00:27:29;;;;;;;1.48;0.63;;;20.40;58.70;;;;;;5090940;28;20044;-47
2022/11/08 00:29:56;;;;;;;1.35;0.57;;;20.40;58.70;;;;;;5108714;27;20047;-50
2022/11/08 00:32:25;;;;;;;1.65;0.20;;;20.40;58.60;;;;;;5111116;28;20126;-50
2022/11/08 00:34:53;;;;;;;1.27;0.63;;;20.40;58.60;;;;;;5111423;28;20526;-49
2022/11/08 00:37:22;;;;;;;1.95;0.28;;;20.30;58.50;;;;;;5111397;28;20032;-51
2022/11/08 00:39:49;;;;;;;1.25;0.52;;;20.40;58.50;;;;;;5111300;28;20054;-48
2022/11/08 00:42:16;;;;;;;0.70;0.30;;;20.40;58.50;;;;;;5092771;28;20104;-48
2022/11/08 00:44:43;;;;;;;2.00;0.43;;;20.30;58.40;;;;;;5111022;28;20046;-47
2022/11/08 00:47:10;;;;;;;1.38;0.30;;;20.30;58.30;;;;;;5110199;28;20710;-47
2022/11/08 00:49:37;;;;;;;2.10;0.65;;;20.30;58.30;;;;;;5110344;28;20031;-46
2022/11/08 00:52:05;;;;;;;4.88;0.30;;;20.40;58.40;;;;;;5110459;28;20039;-48
2022/11/08 00:54:33;;;;;;;0.52;0.30;;;20.30;58.20;;;;;;5110794;28;20048;-46
2022/11/08 00:57:00;;;;;;;2.33;0.63;;;20.30;58.20;;;;;;5110811;28;20077;-47
2022/11/08 00:59:27;;;;;;;2.10;0.90;;;20.30;58.10;;;;;;5110601;28;20043;-46
2022/11/08 01:01:54;;;;;;;1.65;0.50;;;20.30;58.10;;;;;;5110305;28;20610;-47
2022/11/08 01:04:21;;;;;;;1.77;0.28;;;20.30;58.00;;;;;;5092121;28;20608;-45
2022/11/08 01:06:48;;;;;;;2.30;0.15;;;20.30;58.00;;;;;;5110589;28;20066;-45
2022/11/08 01:09:15;;;;;;;1.38;0.17;;;20.30;58.00;;;;;;5106319;28;20043;-45
2022/11/08 01:11:46;;;;;;;1.70;0.20;;;20.30;57.90;;;;;;5092142;28;20071;-49
2022/11/08 01:14:16;;;;;;;0.70;0.30;;;20.30;57.90;;;;;;5091923;28;20035;-45
2022/11/08 01:16:44;;;;;;;0.82;0.10;;;20.30;57.90;;;;;;5110148;28;20050;-45
2022/11/08 01:19:11;;;;;;;0.22;0.15;;;20.30;57.80;;;;;;5110416;28;20419;-48
2022/11/08 01:21:38;;;;;;;1.77;0.55;;;20.20;57.80;;;;;;5109960;28;20050;-45
2022/11/08 01:24:06;;;;;;;1.38;0.20;;;20.30;57.80;;;;;;5110328;28;20123;-46
2022/11/08 01:26:33;;;;;;;3.17;0.20;;;20.20;57.70;;;;;;5109903;28;20039;-46
2022/11/08 01:29:01;;;;;;;0.52;0.52;;;20.20;57.70;;;;;;5110250;28;20134;-46
2022/11/08 01:31:30;;;;;;;1.27;0.10;;;20.20;57.60;;;;;;5109660;28;20051;-49
2022/11/08 01:33:58;;;;;;;0.28;0.20;;;20.20;57.60;;;;;;5110088;28;20047;-46
2022/11/08 01:36:27;;;;;;;0.88;0.10;;;20.20;58.20;;;;;;5109920;28;20044;-49
2022/11/08 01:38:54;;;;;;;0.10;0.10;;;20.20;57.60;;;;;;5110101;28;20183;-46
2022/11/08 01:41:24;;;;;;;2.00;0.17;;;20.20;57.50;;;;;;5110268;28;20054;-47
2022/11/08 01:43:52;;;;;;;1.40;0.10;;;20.20;57.50;;;;;;5109909;28;20040;-48
2022/11/08 01:46:44;;;;;;;1.52;0.10;;;20.20;57.50;;;;;;5109475;28;20044;-48
2022/11/08 01:49:32;;;;;;;1.10;0.20;;;20.20;57.40;;;;;;5109888;28;20047;-49
2022/11/08 01:52:17;;;;;;;0.68;0.10;;;20.10;57.30;;;;;;5109465;28;20151;-47
2022/11/08 01:54:50;;;;;;;1.63;0.20;;;20.20;57.40;;;;;;5109672;28;20181;-49
2022/11/08 01:57:20;;;;;;;0.22;0.20;;;20.10;57.40;;;;;;5104757;28;20599;-47
2022/11/08 01:59:50;;;;;;;0.60;0.25;;;20.10;57.90;;;;;;5087804;28;20036;-46
2022/11/08 02:02:19;;;;;;;0.60;0.10;;;20.10;57.30;;;;;;5089121;28;20561;-45
2022/11/08 02:04:47;;;;;;;0.85;0.30;;;20.10;57.30;;;;;;5089287;28;20047;-45
2022/11/08 02:07:16;;;;;;;1.20;0.20;;;20.10;57.20;;;;;;5088830;28;20043;-46
2022/11/08 02:09:46;;;;;;;0.85;0.10;;;20.10;57.20;;;;;;5096628;28;20063;-45
2022/11/08 02:12:15;;;;;;;1.25;0.20;;;20.10;57.10;;;;;;5109279;28;20067;-47
2022/11/08 02:14:42;;;;;;;1.20;0.20;;;20.00;57.10;;;;;;5108848;28;20053;-45
2022/11/08 02:17:10;;;;;;;0.30;0.10;;;20.10;57.10;;;;;;5109621;28;20407;-45
2022/11/08 02:19:45;;;;;;;0.95;0.20;;;20.00;57.00;;;;;;5091063;28;20036;-45
2022/11/08 02:22:28;;;;;;;0.82;0.20;;;20.00;56.90;;;;;;5109207;28;20047;-46
2022/11/08 02:24:59;;;;;;;0.52;0.20;;;20.10;56.90;;;;;;5108967;28;20043;-47
2022/11/08 02:27:26;;;;;;;0.63;0.30;;;20.00;56.90;;;;;;5090894;28;20047;-45
2022/11/08 02:29:54;;;;;;;2.40;0.28;;;20.00;56.80;;;;;;5108418;28;20042;-45
2022/11/08 02:32:21;;;;;;;0.30;0.10;;;20.00;56.80;;;;;;5109140;28;20086;-46
2022/11/08 02:34:52;;;;;;;0.17;0.17;;;20.00;56.70;;;;;;5108885;28;20122;-45
2022/11/08 02:37:21;;;;;;;0.45;0.35;;;20.00;56.70;;;;;;5108537;28;20575;-49
2022/11/08 02:39:48;;;;;;;1.00;0.10;;;20.00;56.70;;;;;;5111739;27;20534;-49
2022/11/08 02:42:18;;;;;;;0.20;0.10;;;20.00;56.60;;;;;;5129446;27;20558;-47
2022/11/08 02:44:46;;;;;;;0.82;0.80;;;20.00;56.50;;;;;;5110420;27;20050;-46
2022/11/08 02:47:13;;;;;;;0.20;0.10;;;20.00;56.50;;;;;;5106631;27;20047;-51
2022/11/08 02:49:40;;;;;;;0.50;0.30;;;20.00;56.50;;;;;;5089173;28;20595;-45
2022/11/08 02:52:08;;;;;;;1.48;0.20;;;20.00;56.40;;;;;;5108431;28;20070;-45
2022/11/08 02:54:35;;;;;;;0.40;0.28;;;19.90;56.40;;;;;;5108713;28;20066;-48
2022/11/08 02:57:02;;;;;;;0.52;0.10;;;19.90;56.40;;;;;;5108628;28;20693;-47
2022/11/08 02:59:30;;;;;;;1.20;0.17;;;20.00;56.40;;;;;;5108511;28;20118;-48
2022/11/08 03:01:57;;;;;;;3.05;0.10;;;20.00;56.30;;;;;;5073667;28;20416;-47
2022/11/08 03:04:24;;;;;;;0.20;0.10;;;19.90;56.20;;;;;;5108643;28;20043;-50
2022/11/08 03:06:51;;;;;;;0.17;0.10;;;19.90;56.20;;;;;;5108620;28;20545;-47
2022/11/08 03:09:18;;;;;;;0.40;0.10;;;20.00;56.20;;;;;;5090304;28;20077;-48
2022/11/08 03:11:45;;;;;;;6.57;0.10;;;19.90;56.70;;;;;;5108417;28;20216;-48
2022/11/08 03:14:12;;;;;;;0.10;0.03;;;19.90;56.10;;;;;;5089784;28;20076;-45
2022/11/08 03:16:40;;;;;;;0.17;0.10;;;19.90;56.10;;;;;;5108496;28;20068;-45
2022/11/08 03:19:07;;;;;;;0.55;0.15;;;19.90;56.00;;;;;;5108553;28;20423;-49
2022/11/08 03:21:35;;;;;;;1.65;0.20;;;19.90;56.00;;;;;;5108225;28;20043;-47
2022/11/08 03:24:02;;;;;;;1.50;0.10;;;19.90;56.00;;;;;;5108435;28;20058;-48
2022/11/08 03:26:31;;;;;;;0.20;0.10;;;19.90;55.90;;;;;;5107993;28;20130;-45
2022/11/08 03:28:58;;;;;;;2.42;0.10;;;19.90;55.90;;;;;;5108285;28;20043;-47
2022/11/08 03:31:25;;;;;;;0.40;0.10;;;19.80;55.90;;;;;;5108628;28;20503;-45
2022/11/08 03:33:53;;;;;;;0.10;0.10;;;19.90;55.80;;;;;;5108248;28;20104;-46
2022/11/08 03:36:20;;;;;;;0.10;0.10;;;19.90;55.80;;;;;;5090219;28;20032;-45
2022/11/08 03:38:47;;;;;;;0.47;0.13;;;19.90;55.80;;;;;;5087939;28;20658;-47
2022/11/08 03:41:14;;;;;;;0.80;0.80;;;19.80;55.70;;;;;;5087540;28;20137;-45
2022/11/08 03:43:41;;;;;;;0.28;0.10;;;19.80;55.60;;;;;;5087730;28;20044;-49
2022/11/08 03:46:08;;;;;;;0.25;0.10;;;19.80;55.60;;;;;;5087984;28;20496;-45
2022/11/08 03:48:35;;;;;;;0.10;0.08;;;19.80;55.50;;;;;;5097507;28;20039;-46
2022/11/08 03:51:04;;;;;;;0.35;0.10;;;19.80;55.50;;;;;;5107816;28;20575;-46
2022/11/08 03:53:31;;;;;;;0.77;0.10;;;19.80;55.40;;;;;;5108045;28;20112;-46
2022/11/08 03:55:59;;;;;;;0.20;0.10;;;19.80;55.40;;;;;;5107865;28;20063;-45
2022/11/08 03:58:26;;;;;;;0.38;0.10;;;19.80;55.30;;;;;;5108089;28;20067;-45
2022/11/08 04:00:53;;;;;;;0.20;0.10;;;19.80;55.30;;;;;;5089565;28;20074;-46
2022/11/08 04:03:20;;;;;;;0.52;0.10;;;19.80;55.30;;;;;;5098725;28;20086;-47
2022/11/08 04:05:47;;;;;;;0.30;0.10;;;19.80;55.20;;;;;;5108126;28;20066;-47
2022/11/08 04:08:15;;;;;;;0.80;0.05;;;19.80;55.20;;;;;;5107935;28;20044;-45
2022/11/08 04:10:42;;;;;;;1.45;0.10;;;19.80;55.10;;;;;;5107553;28;20039;-46
2022/11/08 04:15:56;;;;;;;0.30;0.10;;;19.80;55.10;;;;;;5107936;28;20055;-45
2022/11/08 04:21:21;;;;;;;0.45;0.10;;;19.80;55.00;;;;;;5107946;28;20400;-44
2022/11/08 04:23:51;;;;;;;0.20;0.10;;;19.80;55.00;;;;;;5100702;28;20083;-44
2022/11/08 04:26:19;;;;;;;2.42;0.60;;;19.80;55.00;;;;;;5090793;28;20127;-46
2022/11/08 04:28:46;;;;;;;1.70;0.10;;;19.80;55.00;;;;;;5090893;28;20047;-44
2022/11/08 04:31:15;;;;;;;0.95;0.10;;;19.80;55.50;;;;;;5091090;28;20137;-45
2022/11/08 04:33:42;;;;;;;0.20;0.10;;;19.80;54.90;;;;;;5090704;28;20044;-47
2022/11/08 04:36:11;;;;;;;0.20;0.10;;;19.80;54.80;;;;;;5090962;28;20048;-48
2022/11/08 04:38:39;;;;;;;0.20;0.05;;;19.80;54.80;;;;;;5111166;27;20510;-45
2022/11/08 04:41:09;;;;;;;0.32;0.10;;;19.80;54.70;;;;;;5111821;27;20078;-45
2022/11/08 04:43:37;;;;;;;0.43;0.13;;;19.80;54.70;;;;;;5110927;28;20039;-46
2022/11/08 04:46:05;;;;;;;0.50;0.13;;;19.80;54.60;;;;;;5110993;28;20054;-45
2022/11/08 04:48:33;;;;;;;0.60;0.10;;;19.80;54.60;;;;;;5110946;28;20038;-46
2022/11/08 04:51:05;;;;;;;0.20;0.10;;;19.70;54.50;;;;;;5110677;28;20043;-45
2022/11/08 04:53:32;;;;;;;0.10;0.03;;;19.80;54.50;;;;;;5110598;28;20039;-45
2022/11/08 04:56:01;;;;;;;0.40;0.10;;;19.70;54.40;;;;;;5110673;28;20496;-45
2022/11/08 04:58:33;;;;;;;0.17;0.15;;;19.70;54.30;;;;;;5110899;28;20044;-45
2022/11/08 05:01:01;;;;;;;0.13;0.13;;;19.80;54.30;;;;;;5110705;28;20764;-45
2022/11/08 05:03:29;;;;;;;0.90;0.03;;;19.70;54.20;;;;;;5110491;28;20044;-45
2022/11/08 05:05:56;;;;;;;2.65;1.48;;;19.70;54.80;;;;;;5110760;28;20126;-45
2022/11/08 05:08:23;;;;;;;0.20;0.10;;;19.70;54.20;;;;;;5110551;28;20032;-45
2022/11/08 05:10:50;;;;;;;0.47;0.10;;;19.70;54.10;;;;;;5110484;28;20047;-47
2022/11/08 05:13:17;;;;;;;0.13;0.10;;;19.70;54.00;;;;;;5110393;28;20503;-48
2022/11/08 05:15:45;;;;;;;0.17;0.13;;;19.70;54.00;;;;;;5110330;28;20071;-46
2022/11/08 05:18:12;;;;;;;0.25;0.00;;;19.70;54.00;;;;;;5110505;28;20039;-48
2022/11/08 05:23:23;;;;;;;0.10;0.10;;;19.70;53.90;;;;;;5110357;28;20396;-45
2022/11/08 05:25:51;;;;;;;0.10;0.10;;;19.70;53.90;;;;;;5110014;28;20039;-46
2022/11/08 05:28:18;;;;;;;1.58;0.10;;;19.70;53.80;;;;;;5110232;28;20222;-45
2022/11/08 05:30:52;;;;;;;0.40;0.03;;;19.70;53.80;;;;;;5110146;28;20062;-45
2022/11/08 05:33:19;;;;;;;0.20;0.00;;;19.70;53.80;;;;;;5109965;28;20146;-46
2022/11/08 05:35:46;;;;;;;0.10;0.10;;;19.70;53.70;;;;;;5109824;28;20040;-45
2022/11/08 05:38:13;;;;;;;0.47;0.10;;;19.70;53.70;;;;;;5109709;28;20040;-47
2022/11/08 05:40:40;;;;;;;0.10;0.10;;;19.70;53.70;;;;;;5109828;28;20046;-48
2022/11/08 05:43:07;;;;;;;0.55;0.10;;;19.70;53.70;;;;;;5109845;28;20123;-45
2022/11/08 05:45:35;;;;;;;0.28;0.08;;;19.70;53.60;;;;;;5109943;28;20036;-47
2022/11/08 05:48:04;;;;;;;0.15;0.10;;;19.70;53.60;;;;;;5109846;28;20122;-50
2022/11/08 05:50:32;;;;;;;0.10;0.10;;;19.70;53.60;;;;;;5109862;28;20504;-47
2022/11/08 05:53:05;;;;;;;1.25;0.38;;;19.70;53.50;;;;;;5109061;28;20055;-50
2022/11/08 05:55:32;;;;;;;0.10;0.10;;;19.70;53.50;;;;;;5109387;28;20089;-49
2022/11/08 05:57:59;;;;;;;0.30;0.10;;;19.70;53.40;;;;;;5109736;28;20043;-46
2022/11/08 06:00:26;;;;;;;1.90;0.10;;;19.70;53.30;;;;;;5109042;28;20101;-49
2022/11/08 06:02:53;;;;;;;0.20;0.00;;;19.70;53.30;;;;;;5109304;28;20044;-47
2022/11/08 06:05:21;;;;;;;0.10;0.10;;;19.60;53.20;;;;;;5091174;28;20050;-45
2022/11/08 06:07:48;;;;;;;0.73;0.10;;;19.60;53.20;;;;;;5109053;28;20044;-47
2022/11/08 06:10:15;;;;;;;0.32;0.10;;;19.70;53.20;;;;;;5109085;28;20122;-47
2022/11/08 06:12:42;;;;;;;0.20;0.10;;;19.60;53.20;;;;;;5109255;28;20047;-47
2022/11/08 06:15:10;;;;;;;0.10;0.10;;;19.60;53.10;;;;;;5109156;28;20126;-45
2022/11/08 06:17:37;;;;;;;1.02;0.10;;;19.60;53.20;;;;;;5109213;28;20084;-47
2022/11/08 06:20:06;;;;;;;1.05;0.20;;;19.60;53.20;;;;;;5109253;28;20050;-50
2022/11/08 06:22:35;;;;;;;0.50;0.10;;;19.60;53.20;;;;;;5108894;28;20058;-47
2022/11/08 06:25:02;;;;;;;0.20;0.10;;;19.60;53.10;;;;;;5090768;28;20132;-45
2022/11/08 06:27:29;;;;;;;0.95;0.28;;;19.60;53.10;;;;;;5108737;28;20036;-45
2022/11/08 06:29:56;;;;;;;0.40;0.10;;;19.60;53.10;;;;;;5108845;28;20052;-47
2022/11/08 06:32:23;;;;;;;1.00;0.47;;;19.60;53.20;;;;;;5090675;28;20047;-45
2022/11/08 06:34:50;;;;;;;0.10;0.03;;;19.60;53.20;;;;;;5108901;28;20130;-45
2022/11/08 06:37:17;;;;;;;0.52;0.20;;;19.60;53.20;;;;;;5108775;28;20036;-49
2022/11/08 06:39:45;;;;;;;0.20;0.10;;;19.60;53.20;;;;;;5115862;27;20126;-47
2022/11/08 06:42:13;;;;;;;0.38;0.10;;;19.60;53.10;;;;;;5108382;28;20046;-47
2022/11/08 06:44:40;;;;;;;1.00;0.08;;;19.60;53.20;;;;;;5089547;28;20063;-45
2022/11/08 06:47:07;;;;;;;0.50;0.00;;;19.60;53.20;;;;;;5108143;28;20090;-46
2022/11/08 06:49:35;;;;;;;0.20;0.00;;;19.50;53.10;;;;;;5107931;28;20120;-45
2022/11/08 06:52:03;;;;;;;0.10;0.00;;;19.50;53.10;;;;;;5108532;28;20047;-45
2022/11/08 06:54:30;;;;;;;0.68;0.30;;;19.50;53.20;;;;;;5090357;28;20051;-46
2022/11/08 06:57:00;;;;;;;0.65;0.10;;;19.50;53.20;;;;;;5108558;28;20040;-45
2022/11/08 06:59:28;;;;;;;0.10;0.10;;;19.50;53.20;;;;;;5090410;28;20074;-49
2022/11/08 07:01:55;;;;;;;2.20;0.10;;;19.50;53.20;;;;;;5108594;28;20514;-45
2022/11/08 07:04:22;;;;;;;0.25;0.10;;;19.50;53.20;;;;;;5107890;28;20044;-45
2022/11/08 07:06:49;;;;;;;0.10;0.10;;;19.50;53.20;;;;;;5108104;28;20109;-46
2022/11/08 07:09:17;;;;;;;1.60;0.10;;;19.50;53.20;;;;;;5108268;28;20610;-45
2022/11/08 07:11:44;;;;;;;0.10;0.00;;;19.50;53.20;;;;;;5108292;28;20032;-45
2022/11/08 07:14:12;;;;;;;1.38;0.00;;;19.50;53.20;;;;;;5108101;28;20100;-45
2022/11/08 07:16:39;;;;;;;1.85;0.52;;;19.50;53.20;;;;;;5108514;28;20164;-46
2022/11/08 07:19:06;;;;;;;0.30;0.10;;;19.50;53.20;;;;;;5089647;28;20067;-46
2022/11/08 07:21:34;;;;;;;0.10;0.10;;;19.50;53.20;;;;;;5108461;28;20047;-47
2022/11/08 07:24:01;;;;;;;0.75;0.10;;;19.50;53.20;;;;;;5108479;28;20542;-46
2022/11/08 07:26:28;;;;;;;1.95;0.73;;;19.50;53.20;;;;;;5108397;28;20036;-45
2022/11/08 07:28:55;;;;;;;0.28;0.10;;;19.50;53.20;;;;;;5108225;28;20469;-47
2022/11/08 07:31:23;;;;;;;2.72;0.10;;;19.50;53.20;;;;;;5108286;28;20043;-47
2022/11/08 07:33:50;;;;;;;0.30;0.10;;;19.50;53.20;;;;;;5108022;28;20218;-45
2022/11/08 07:36:17;;;;;;;0.40;0.10;;;19.50;53.20;;;;;;5108194;28;20032;-47
2022/11/08 07:38:44;;;;;;;0.20;0.10;;;19.50;53.10;;;;;;5076232;28;20106;-46
2022/11/08 07:41:11;;;;;;;0.47;0.10;;;19.50;53.10;;;;;;5107669;28;20556;-47
2022/11/08 07:43:39;;;;;;;2.30;0.20;;;19.50;53.10;;;;;;5107934;28;20134;-48
2022/11/08 07:46:16;;;;;;;0.60;0.10;;;19.50;53.10;;;;;;5108123;28;20042;-48
2022/11/08 07:48:44;;;;;;;1.70;0.32;;;19.50;53.10;;;;;;5107804;28;20130;-46
2022/11/08 07:51:11;;;;;;;0.30;0.10;;;19.50;53.10;;;;;;5107883;28;20043;-50
2022/11/08 07:53:38;;;;;;;0.57;0.10;;;19.50;53.00;;;;;;5107933;28;20068;-48
2022/11/08 07:56:06;;;;;;;0.20;0.20;;;19.50;53.00;;;;;;5108284;28;20122;-45
2022/11/08 07:58:33;;;;;;;0.65;0.30;;;19.50;53.00;;;;;;5111417;28;20073;-47
2022/11/08 08:01:02;;;;;;;0.85;0.10;;;19.50;53.00;;;;;;5093590;28;20044;-45
2022/11/08 08:03:30;;;;;;;0.20;0.13;;;19.50;53.00;;;;;;5108654;28;20123;-46
2022/11/08 08:05:58;;;;;;;1.05;0.10;;;19.50;52.90;;;;;;5093408;28;20067;-47
2022/11/08 08:08:25;;;;;;;0.68;0.38;;;19.50;52.90;;;;;;5111786;28;20484;-45
2022/11/08 08:10:56;;;;;;;0.25;0.10;;;19.60;53.00;;;;;;5111682;28;20694;-47
2022/11/08 08:13:23;;;;;;;1.20;0.10;;;19.60;53.00;;;;;;5111863;28;20126;-46
2022/11/08 08:15:50;;;;;;;0.50;0.10;;;19.60;53.00;;;;;;5111526;28;20044;-46
2022/11/08 08:18:19;;;;;;;1.30;0.10;;;19.60;52.90;;;;;;5111473;28;20042;-45
2022/11/08 08:20:47;;;;;;;1.90;0.22;;;19.60;52.90;;;;;;5111794;28;20073;-46
2022/11/08 08:23:15;;;;;;;0.20;0.10;;;19.60;52.80;;;;;;5111644;28;20039;-45
2022/11/08 08:25:42;;;;;;;0.30;0.10;;;19.60;52.70;;;;;;5111761;28;20113;-49
2022/11/08 08:28:10;;;;;;;0.63;0.10;;;19.60;52.70;;;;;;5094810;28;20779;-45
2022/11/08 08:30:37;;;;;;;1.25;0.30;;;19.60;52.70;;;;;;5091098;28;20416;-45
2022/11/08 08:33:06;;;;;;;0.90;0.40;;;19.70;52.70;;;;;;5090595;28;20036;-47
2022/11/08 08:35:34;;;;;;;1.60;0.10;;;19.70;52.70;;;;;;5091142;28;20036;-46
2022/11/08 08:38:02;;;;;;;0.60;0.10;;;19.70;52.70;;;;;;5107269;28;20040;-46
2022/11/08 08:40:30;;;;;;;1.10;0.10;;;19.70;52.70;;;;;;5122567;27;20499;-46
2022/11/08 08:42:58;;;;;;;1.00;0.30;;;19.70;53.20;;;;;;5131783;27;20146;-47
2022/11/08 08:45:26;;;;;;;0.20;0.10;;;19.70;52.50;;;;;;5131368;27;20066;-47
2022/11/08 08:47:55;;;;;;;0.20;0.20;;;19.80;52.50;;;;;;5131558;27;20091;-45
2022/11/08 08:50:22;;;;;;;0.13;0.10;;;19.70;52.40;;;;;;5120000;27;20046;-51
2022/11/08 08:52:49;;;;;;;1.20;0.10;;;19.80;52.40;;;;;;5113342;27;20079;-48
2022/11/08 08:55:17;;;;;;;0.20;0.10;;;19.80;52.40;;;;;;5111004;28;20044;-45
2022/11/08 08:57:46;;;;;;;1.40;0.10;;;19.80;52.30;;;;;;5110869;28;20096;-48
2022/11/08 09:00:15;;;;;;;0.35;0.25;;;19.80;52.30;;;;;;5110333;28;20048;-46
2022/11/08 09:02:43;;;;;;;2.63;0.20;;;19.80;52.30;;;;;;5090068;28;20075;-45
2022/11/08 09:05:11;;;;;;;0.47;0.10;;;19.80;52.30;;;;;;5090418;28;20051;-48
2022/11/08 09:07:38;;;;;;;1.23;0.10;;;19.80;52.10;;;;;;5090287;28;20127;-46
2022/11/08 09:10:07;;;;;;;0.30;0.30;;;19.90;52.10;;;;;;5100461;28;20126;-48
2022/11/08 09:12:35;;;;;;;0.00;0.00;;;19.90;52.10;;;;;;5110540;28;20530;-45
2022/11/08 09:15:05;;;;;;;0.85;0.20;;;19.90;52.00;;;;;;5109957;28;20522;-46
2022/11/08 09:17:32;;;;;;;0.75;0.10;;;20.00;52.00;;;;;;5110465;28;20071;-47
2022/11/08 09:19:59;;;;;;;0.65;0.10;;;20.00;52.00;;;;;;5110497;28;20051;-47
2022/11/08 09:22:26;;;;;;;2.05;0.10;;;20.00;51.90;;;;;;5110388;28;20050;-46
2022/11/08 09:24:53;;;;;;;0.43;0.20;;;20.10;51.80;;;;;;5110381;28;20118;-46
2022/11/08 09:27:20;;;;;;;2.30;0.20;;;20.10;51.70;;;;;;5102624;28;20040;-46
2022/11/08 09:29:47;;;;;;;1.10;0.20;;;20.10;51.70;;;;;;5103556;28;20047;-46
2022/11/08 09:32:15;;;;;;;0.30;0.10;;;20.10;51.60;;;;;;5110112;28;20047;-45
2022/11/08 09:34:42;;;;;;;1.17;0.20;;;20.20;51.60;;;;;;5109956;28;20088;-47
2022/11/08 09:37:09;;;;;;;0.30;0.30;;;20.20;51.50;;;;;;5110159;28;20050;-47
2022/11/08 09:39:36;;;;;;;0.90;0.20;;;20.20;51.50;;;;;;5110136;28;20500;-50
2022/11/08 09:42:27;;;;;;;3.13;0.45;;;20.20;51.40;;;;;;5110019;28;20078;-52
2022/11/08 09:45:11;;;;;;;0.30;0.20;;;20.30;51.40;;;;;;5109505;28;20573;-48
2022/11/08 09:47:42;;;;;;;0.25;0.20;;;20.30;51.40;;;;;;5109756;28;20036;-45
2022/11/08 09:50:19;;;;;;;2.90;1.60;;;20.30;51.40;;;;;;5110010;28;20443;-47
2022/11/08 09:52:49;;;;;;;2.78;0.50;;;20.30;51.30;;;;;;5095614;28;20058;-46
2022/11/08 09:55:26;;;;;;;4.18;0.65;;;20.30;51.30;;;;;;5110016;28;20148;-47
2022/11/08 09:58:10;;;;;;;4.18;0.63;;;20.40;51.30;;;;;;5109290;28;20131;-46
2022/11/08 10:00:39;;;;;;;0.95;0.20;;;20.40;51.30;;;;;;5109774;28;20116;-45
2022/11/08 10:03:13;;;;;;;1.55;0.20;;;20.40;51.30;;;;;;5109256;28;20050;-45
2022/11/08 10:05:42;;;;;;;2.08;0.63;;;20.40;51.20;;;;;;5109548;28;20122;-45
2022/11/08 10:08:19;;;;;;;1.73;0.20;;;20.40;51.20;;;;;;5109829;28;20518;-48
2022/11/08 10:11:07;;;;;;;2.10;0.10;;;20.40;51.20;;;;;;5109404;28;20134;-47
2022/11/08 10:13:45;;;;;;;2.17;0.80;;;20.50;51.10;;;;;;5109050;28;20046;-47
2022/11/08 10:16:23;;;;;;;0.95;0.20;;;20.50;51.10;;;;;;5095444;28;20118;-44
2022/11/08 10:19:07;;;;;;;0.47;0.20;;;20.50;51.10;;;;;;5109138;28;20050;-48
2022/11/08 10:21:51;;;;;;;1.67;0.35;;;20.60;51.20;;;;;;5089971;28;20132;-46
2022/11/08 10:24:27;;;;;;;1.08;0.20;;;20.60;51.20;;;;;;5109082;28;20079;-47
2022/11/08 10:26:57;;;;;;;2.65;0.25;;;20.60;51.20;;;;;;5108908;28;20324;-46
2022/11/08 10:29:29;;;;;;;0.38;0.10;;;20.70;51.20;;;;;;5109130;28;20669;-49
2022/11/08 10:32:01;;;;;;;1.77;0.73;;;20.70;51.10;;;;;;5118678;27;20118;-47
2022/11/08 10:34:39;;;;;;;0.38;0.38;;;20.70;51.00;;;;;;5129627;27;20047;-47
2022/11/08 10:37:10;;;;;;;2.40;0.50;;;20.80;50.80;;;;;;5129513;27;20613;-48
2022/11/08 10:39:43;;;;;;;1.00;0.20;;;20.80;50.80;;;;;;5103785;28;20055;-45
2022/11/08 10:42:16;;;;;;;3.30;0.50;;;20.80;50.80;;;;;;5095735;28;20035;-45
2022/11/08 10:44:43;;;;;;;0.20;0.10;;;20.90;50.80;;;;;;5108705;28;20049;-45
2022/11/08 10:47:17;;;;;;;2.50;0.10;;;20.90;50.80;;;;;;5108725;28;20508;-45
2022/11/08 10:49:45;;;;;;;3.05;0.10;;;21.00;50.70;;;;;;5108586;28;20498;-48
2022/11/08 10:52:19;;;;;;;3.60;0.20;;;21.00;50.70;;;;;;5108543;28;20047;-45
2022/11/08 10:54:48;;;;;;;0.28;0.10;;;21.10;50.70;;;;;;5089954;28;20488;-45
2022/11/08 10:57:17;;;;;;;1.20;0.10;;;21.10;50.80;;;;;;5108366;28;20409;-45
2022/11/08 10:59:45;;;;;;;0.52;0.10;;;21.20;50.80;;;;;;5108401;28;20039;-48
2022/11/08 11:02:24;;;;;;;0.35;0.10;;;21.20;50.70;;;;;;5108369;28;20043;-47
2022/11/08 11:04:54;;;;;;;1.15;0.32;;;21.30;50.70;;;;;;5076325;28;20462;-46
2022/11/08 11:07:36;;;;;;;2.05;0.80;;;21.30;50.70;;;;;;5108533;28;20047;-45
2022/11/08 11:10:22;;;;;;;0.93;0.08;;;21.40;50.60;;;;;;5108741;28;20038;-45
2022/11/08 11:12:49;;;;;;;;;;;21.50;50.60;;;;;;5088418;28;20051;-49
2022/11/08 11:15:17;;;;;;;1.13;0.10;;;21.40;50.60;;;;;;5088097;28;19924;-47
2022/11/08 11:17:45;;;;;;;0.88;0.20;;;21.40;50.60;;;;;;5087906;28;20047;-47
2022/11/08 11:20:22;;;;;;;2.83;0.15;;;21.50;50.60;;;;;;5088178;28;20044;-45
2022/11/08 11:22:51;;;;;;;0.57;0.10;;;21.50;51.10;;;;;;5088082;28;20123;-47
2022/11/08 11:25:21;;;;;;;0.55;0.10;;;21.50;50.50;;;;;;5087749;28;20044;-46
2022/11/08 11:27:53;;;;;;;0.40;0.10;;;21.60;50.40;;;;;;5087980;28;20044;-46
2022/11/08 11:30:28;;;;;;;0.10;0.10;;;21.60;50.40;;;;;;5096544;28;20040;-48
2022/11/08 11:32:58;;;;;;;1.30;1.20;;;21.70;50.40;;;;;;5110679;28;20460;-45
2022/11/08 11:35:34;;;;;;;1.35;0.00;;;21.60;50.30;;;;;;5112688;28;20131;-47
2022/11/08 11:38:03;;;;;;;2.88;0.20;;;21.70;50.30;;;;;;5112588;28;20128;-46
2022/11/08 11:40:36;;;;;;;1.98;0.10;;;21.70;50.30;;;;;;5111964;28;20054;-45
2022/11/08 11:43:10;;;;;;;0.98;0.10;;;21.70;50.30;;;;;;5112160;28;20126;-46
2022/11/08 11:45:45;;;;;;;0.28;0.10;;;21.80;50.40;;;;;;5112159;28;20071;-47
2022/11/08 11:48:16;;;;;;;1.30;0.22;;;21.80;50.40;;;;;;5112076;28;20044;-45
2022/11/08 11:50:49;;;;;;;0.82;0.10;;;21.80;50.40;;;;;;5094039;28;20032;-46
2022/11/08 11:53:21;;;;;;;0.85;0.20;;;21.80;50.20;;;;;;5097931;28;20067;-50
2022/11/08 11:56:24;;;;;;;0.40;0.13;;;21.80;50.30;;;;;;5112010;28;20051;-48
2022/11/08 11:59:05;;;;;;;0.32;0.10;;;21.90;50.30;;;;;;5112469;28;20750;-53
2022/11/08 12:01:45;;;;;;;0.75;0.10;;;21.90;50.30;;;;;;5112451;28;20046;-47
2022/11/08 12:04:28;;;;;;;0.32;0.30;;;21.90;50.20;;;;;;5111638;28;20047;-47
2022/11/08 12:07:02;;;;;;;0.57;0.10;;;21.90;50.20;;;;;;5111748;28;20081;-47
2022/11/08 12:09:41;;;;;;;0.43;0.10;;;21.90;50.20;;;;;;5111365;28;20043;-47
2022/11/08 12:12:21;;;;;;;0.77;0.20;;;21.90;50.20;;;;;;5111489;28;20074;-50
2022/11/08 12:15:00;;;;;;;2.90;0.10;;;21.90;50.20;;;;;;5111692;28;20092;-46
2022/11/08 12:17:45;;;;;;;0.85;0.45;;;22.00;50.20;;;;;;5105713;28;20044;-47
2022/11/08 12:20:37;;;;;;;1.83;0.20;;;21.90;50.10;;;;;;5105880;28;20654;-50
2022/11/08 12:23:23;;;;;;;2.47;0.15;;;22.00;50.10;;;;;;5111046;28;20126;-47
2022/11/08 12:25:59;;;;;;;2.67;0.10;;;22.00;50.20;;;;;;5111468;28;20043;-46
2022/11/08 12:28:49;;;;;;;4.15;0.45;;;22.00;50.20;;;;;;5111395;28;20047;-46
2022/11/08 12:31:26;;;;;;;0.75;0.10;;;22.00;50.20;;;;;;5111265;28;20127;-52
2022/11/08 12:34:14;;;;;;;0.93;0.10;;;22.00;50.30;;;;;;5111487;28;20043;-47
2022/11/08 12:36:52;;;;;;;1.08;0.15;;;22.00;50.30;;;;;;5111311;28;20046;-51
2022/11/08 12:39:29;;;;;;;1.55;0.20;;;22.00;50.40;;;;;;5110969;28;20071;-50
2022/11/08 12:42:17;;;;;;;2.20;0.10;;;22.00;50.40;;;;;;5112015;27;20086;-47
2022/11/08 12:45:09;;;;;;;0.30;0.10;;;22.00;50.40;;;;;;5109674;28;20054;-46
2022/11/08 12:47:44;;;;;;;2.58;0.17;;;22.00;50.40;;;;;;5092511;28;20047;-47
2022/11/08 12:50:24;;;;;;;2.95;0.10;;;22.00;50.40;;;;;;5110528;28;20058;-50
2022/11/08 12:53:21;;;;;;;1.70;0.35;;;22.00;50.40;;;;;;5091546;28;20053;-48
2022/11/08 12:55:52;;;;;;;0.40;0.03;;;22.00;50.50;;;;;;5110386;28;20134;-48
2022/11/08 12:58:28;;;;;;;1.90;0.10;;;22.00;50.60;;;;;;5110510;28;20250;-45
2022/11/08 13:01:01;;;;;;;1.63;0.10;;;22.00;50.60;;;;;;5110338;28;20042;-47
2022/11/08 13:03:53;;;;;;;3.65;0.10;;;22.00;50.60;;;;;;5110014;28;20038;-46
2022/11/08 13:06:25;;;;;;;4.63;0.10;;;22.00;50.60;;;;;;5081072;28;20123;-50
2022/11/08 13:09:02;;;;;;;2.45;0.10;;;21.90;50.60;;;;;;5108042;28;20129;-50
2022/11/08 13:11:38;;;;;;;1.33;0.10;;;21.90;50.60;;;;;;5110294;28;20043;-50
2022/11/08 13:14:05;;;;;;;2.97;0.17;;;21.90;50.60;;;;;;5110142;28;20051;-46
2022/11/08 13:16:38;;;;;;;2.80;0.10;;;21.90;50.60;;;;;;5091737;28;20051;-51
2022/11/08 13:19:05;;;;;;;2.40;0.10;;;21.90;50.70;;;;;;5109919;28;20047;-47
2022/11/08 13:21:38;;;;;;;3.20;0.30;;;21.90;50.70;;;;;;5109827;28;20528;-46